createdAt,value
2018-05-29T04:10:08.553Z,2028
2018-05-29T04:10:34.018Z,2044
2018-05-29T04:10:59.490Z,2052
2018-05-29T04:11:25.008Z,2068
2018-05-29T04:11:50.483Z,2080
2018-05-29T04:12:16.024Z,2096
2018-05-29T04:12:41.582Z,2108
2018-05-29T04:13:07.073Z,2120
2018-05-29T04:13:32.591Z,2136
2018-05-29T04:13:58.069Z,2144
2018-05-29T04:14:23.553Z,2156
2018-05-29T04:14:49.017Z,2160
2018-05-29T04:15:14.516Z,2168
2018-05-29T04:15:39.984Z,2176
2018-05-29T04:16:05.477Z,2184
2018-05-29T04:16:30.943Z,2192
2018-05-29T04:16:56.472Z,2204
2018-05-29T04:17:22.174Z,2212
2018-05-29T04:17:47.675Z,2228
2018-05-29T04:18:13.166Z,2236
2018-05-29T04:18:38.668Z,2248
2018-05-29T04:19:04.165Z,2260
2018-05-29T04:19:29.653Z,2272
2018-05-29T04:19:55.274Z,2284
2018-05-29T04:20:20.745Z,2296
2018-05-29T04:20:46.269Z,2308
2018-05-29T04:21:11.699Z,2320
2018-05-29T04:21:37.217Z,2336
2018-05-29T04:22:02.830Z,2356
2018-05-29T04:22:28.251Z,2372
2018-05-29T04:22:53.772Z,2388
2018-05-29T04:23:19.265Z,2404
2018-05-29T04:23:44.854Z,2412
2018-05-29T04:24:10.347Z,2428
2018-05-29T04:24:35.842Z,2444
2018-05-29T04:25:01.499Z,2460
2018-05-29T04:25:27.144Z,2480
2018-05-29T04:25:52.655Z,2504
2018-05-29T04:26:18.473Z,2532
2018-05-29T04:26:43.954Z,2552
2018-05-29T04:27:09.451Z,2580
2018-05-29T04:27:34.938Z,2604
2018-05-29T04:28:00.433Z,2628
2018-05-29T04:28:25.929Z,2648
2018-05-29T04:28:51.445Z,2672
2018-05-29T04:29:16.920Z,2700
2018-05-29T04:29:42.408Z,2728
2018-05-29T04:30:07.886Z,2752
2018-05-29T04:30:33.403Z,2780
2018-05-29T04:30:58.909Z,2808
2018-05-29T04:31:24.397Z,2836
2018-05-29T04:31:49.908Z,2864
2018-05-29T04:32:15.386Z,2896
2018-05-29T04:33:19.274Z,2984
2018-05-29T04:33:44.599Z,3020
2018-05-29T04:34:10.097Z,3052
2018-05-29T04:34:35.773Z,3080
2018-05-29T04:35:01.237Z,3100
2018-05-29T04:35:26.744Z,3124
2018-05-29T04:35:52.268Z,3148
2018-05-29T04:36:17.763Z,3176
2018-05-29T04:36:43.225Z,3212
2018-05-29T04:37:08.708Z,3248
2018-05-29T04:37:34.183Z,3288
2018-05-29T04:37:59.744Z,3320
2018-05-29T04:38:25.212Z,3360
2018-05-29T04:39:33.912Z,3436
2018-05-29T04:39:59.423Z,3460
2018-05-29T04:40:24.933Z,3712
2018-05-29T04:40:50.441Z,3736
2018-05-29T04:41:15.929Z,3752
2018-05-29T04:41:41.437Z,3760
2018-05-29T04:42:07.086Z,3772
2018-05-29T04:42:32.538Z,3796
2018-05-29T04:42:58.078Z,3832
2018-05-29T04:43:23.538Z,3864
2018-05-29T04:43:48.978Z,3908
2018-05-29T04:44:14.476Z,3956
2018-05-29T04:45:39.448Z,4092
2018-05-29T04:46:04.906Z,4120
2018-05-29T04:46:30.388Z,4140
2018-05-29T04:46:55.921Z,4160
2018-05-29T04:47:21.514Z,4188
2018-05-29T04:47:46.973Z,4216
2018-05-29T04:48:12.453Z,4244
2018-05-29T04:48:37.946Z,4272
2018-05-29T04:49:03.375Z,4296
2018-05-29T04:49:29.114Z,4324
2018-05-29T04:49:54.557Z,4360
2018-05-29T04:50:20.046Z,4396
2018-05-29T04:50:45.465Z,4432
2018-05-29T04:51:11.349Z,4476
2018-05-29T04:51:36.760Z,4520
2018-05-29T04:52:02.252Z,4568
2018-05-29T04:52:27.690Z,4600
2018-05-29T04:52:53.146Z,4640
2018-05-29T04:53:18.727Z,4668
2018-05-29T04:53:44.254Z,4708
2018-05-29T04:54:09.784Z,4728
2018-05-29T04:54:35.259Z,4764
2018-05-29T04:55:00.747Z,4812
2018-05-29T04:55:26.312Z,4844
2018-05-29T04:55:51.806Z,4876
2018-05-29T04:56:17.376Z,4904
2018-05-29T04:56:42.848Z,4948
2018-05-29T04:57:08.288Z,4988
2018-05-29T04:57:33.736Z,5020
2018-05-29T04:57:59.210Z,5028
2018-05-29T04:58:24.675Z,5044
2018-05-29T04:58:50.119Z,5064
2018-05-29T04:59:15.637Z,5084
2018-05-29T04:59:41.098Z,5104
2018-05-29T05:01:05.087Z,5148
2018-05-29T05:01:30.582Z,5176
2018-05-29T05:01:56.077Z,5176
2018-05-29T05:02:21.555Z,5160
2018-05-29T05:02:46.987Z,5196
2018-05-29T05:03:12.631Z,5224
2018-05-29T05:03:38.210Z,5192
2018-05-29T05:04:03.751Z,5172
2018-05-29T05:04:29.190Z,5212
2018-05-29T05:04:54.704Z,5252
2018-05-29T05:05:20.277Z,5248
2018-05-29T05:05:45.755Z,5232
2018-05-29T05:06:49.373Z,5308
2018-05-29T05:07:14.871Z,5396
2018-05-29T05:07:40.354Z,5436
2018-05-29T05:08:05.881Z,5444
2018-05-29T05:09:30.818Z,5536
2018-05-29T05:09:56.315Z,5576
2018-05-29T05:10:21.790Z,5616
2018-05-29T05:10:47.434Z,5664
2018-05-29T05:11:13.136Z,5708
2018-05-29T05:11:38.688Z,5716
2018-05-29T05:12:04.186Z,5736
2018-05-29T05:12:29.726Z,5764
2018-05-29T05:12:55.182Z,5804
2018-05-29T05:13:20.867Z,5836
2018-05-29T05:13:46.341Z,5852
2018-05-29T05:14:11.820Z,5852
2018-05-29T05:14:37.333Z,5888
2018-05-29T05:15:02.716Z,5932
2018-05-29T05:15:28.186Z,5976
2018-05-29T05:15:53.659Z,6028
2018-05-29T05:16:19.116Z,6084
2018-05-29T05:16:44.625Z,6140
2018-05-29T05:17:10.146Z,6196
2018-05-29T05:17:35.809Z,6208
2018-05-29T05:18:01.301Z,6208
2018-05-29T05:18:26.762Z,6228
2018-05-29T05:18:52.260Z,6260
2018-05-29T05:19:17.711Z,6284
2018-05-29T05:19:43.194Z,6320
2018-05-29T05:20:08.677Z,6356
2018-05-29T05:20:34.144Z,6420
2018-05-29T05:20:59.633Z,6468
2018-05-29T05:21:25.164Z,6488
2018-05-29T05:21:50.633Z,6520
2018-05-29T05:22:16.168Z,6552
2018-05-29T05:22:41.589Z,6556
2018-05-29T05:23:07.097Z,6552
2018-05-29T05:23:32.632Z,6564
2018-05-29T05:23:58.047Z,6592
2018-05-29T05:24:23.530Z,6636
2018-05-29T05:24:49.011Z,6672
2018-05-29T05:25:14.465Z,6724
2018-05-29T05:25:39.955Z,6756
2018-05-29T05:26:05.433Z,6776
2018-05-29T05:26:30.945Z,6856
2018-05-29T05:26:56.658Z,6960
2018-05-29T05:27:22.361Z,7060
2018-05-29T05:27:47.858Z,7136
2018-05-29T05:28:13.365Z,7184
2018-05-29T05:28:38.916Z,7208
2018-05-29T05:29:04.494Z,7240
2018-05-29T05:29:29.899Z,7268
2018-05-29T05:29:55.396Z,7296
2018-05-29T05:30:20.977Z,7324
2018-05-29T05:30:46.782Z,7368
2018-05-29T05:31:12.360Z,7404
2018-05-29T05:31:37.834Z,7448
2018-05-29T05:32:03.420Z,7484
2018-05-29T05:32:29.005Z,7524
2018-05-29T05:32:54.453Z,7580
2018-05-29T05:33:20.022Z,7616
2018-05-29T05:33:45.458Z,7632
2018-05-29T05:34:10.965Z,7640
2018-05-29T05:34:36.519Z,7648
2018-05-29T05:35:02.050Z,7632
2018-05-29T05:35:27.636Z,7628
2018-05-29T05:35:53.073Z,7616
2018-05-29T05:36:18.592Z,7600
2018-05-29T05:36:44.079Z,7584
2018-05-29T05:37:09.515Z,7568
2018-05-29T05:37:34.958Z,7572
2018-05-29T05:38:00.419Z,7576
2018-05-29T05:38:25.924Z,7584
2018-05-29T05:38:51.410Z,7596
2018-05-29T05:39:16.912Z,7608
2018-05-29T05:39:42.333Z,7624
2018-05-29T05:40:07.858Z,7644
2018-05-29T05:40:33.347Z,7648
2018-05-29T05:40:58.835Z,7620
2018-05-29T05:41:24.288Z,7592
2018-05-29T05:41:49.722Z,7600
2018-05-29T05:42:15.184Z,7620
2018-05-29T05:42:40.645Z,7648
2018-05-29T05:43:06.160Z,7668
2018-05-29T05:43:31.596Z,7684
2018-05-29T05:43:57.116Z,7692
2018-05-29T05:44:22.547Z,7696
2018-05-29T05:44:48.050Z,7728
2018-05-29T05:45:13.590Z,7768
2018-05-29T05:45:39.140Z,7760
2018-05-29T05:46:04.755Z,7724
2018-05-29T05:46:30.278Z,7720
2018-05-29T05:46:55.746Z,7724
2018-05-29T05:47:21.472Z,7732
2018-05-29T05:47:46.958Z,7744
2018-05-29T05:49:10.991Z,7880
2018-05-29T05:49:36.497Z,7916
2018-05-29T05:50:01.980Z,7932
2018-05-29T05:50:27.541Z,7992
2018-05-29T05:50:53.365Z,8080
2018-05-29T05:51:18.811Z,8228
2018-05-29T05:51:44.241Z,8392
2018-05-29T05:52:09.734Z,8548
2018-05-29T05:52:35.181Z,8700
2018-05-29T05:53:00.660Z,8852
2018-05-29T05:53:26.180Z,9008
2018-05-29T05:53:51.665Z,9104
2018-05-29T05:54:17.169Z,9148
2018-05-29T05:54:42.577Z,9196
2018-05-29T05:55:08.100Z,9200
2018-05-29T05:55:33.611Z,9236
2018-05-29T05:55:59.064Z,9268
2018-05-29T05:56:24.572Z,9360
2018-05-29T05:56:50.075Z,9400
2018-05-29T05:57:15.630Z,9472
2018-05-29T05:57:41.116Z,9548
2018-05-29T05:58:06.674Z,9616
2018-05-29T05:58:32.247Z,9696
2018-05-29T05:58:57.694Z,9724
2018-05-29T05:59:23.195Z,9744
2018-05-29T05:59:48.821Z,9792
2018-05-29T06:00:14.496Z,9860
2018-05-29T06:00:39.978Z,9988
2018-05-29T06:01:05.509Z,10088
2018-05-29T06:01:31.000Z,10544
2018-05-29T06:01:56.523Z,11004
2018-05-29T06:02:21.975Z,11444
2018-05-29T06:02:47.449Z,11844
2018-05-29T06:03:12.937Z,12060
2018-05-29T06:03:38.397Z,12076
2018-05-29T06:04:03.872Z,11936
2018-05-29T06:04:29.333Z,11932
2018-05-29T06:04:54.859Z,11928
2018-05-29T06:05:20.326Z,11992
2018-05-29T06:05:45.823Z,12076
2018-05-29T06:06:11.314Z,12148
2018-05-29T06:06:36.804Z,12248
2018-05-29T06:07:02.376Z,12392
2018-05-29T06:07:27.774Z,12628
2018-05-29T06:07:53.244Z,13076
2018-05-29T06:08:18.715Z,14288
2018-05-29T06:08:44.173Z,15552
2018-05-29T06:09:09.629Z,17280
2018-05-29T06:09:35.087Z,18848
2018-05-29T06:10:00.563Z,19840
2018-05-29T06:10:26.064Z,20640
2018-05-29T06:10:51.636Z,19904
2018-05-29T06:11:17.211Z,19968
2018-05-29T06:11:42.642Z,19392
2018-05-29T06:12:08.102Z,19392
2018-05-29T06:12:33.633Z,19680
2018-05-29T06:12:59.103Z,20160
2018-05-29T06:13:24.550Z,20192
2018-05-29T06:13:50.045Z,19872
2018-05-29T06:14:15.573Z,19264
2018-05-29T06:14:41.058Z,18816
2018-05-29T06:15:06.570Z,18912
2018-05-29T06:15:32.060Z,19104
2018-05-29T06:15:57.930Z,19040
2018-05-29T06:16:23.426Z,18848
2018-05-29T06:16:48.903Z,18560
2018-05-29T06:17:14.413Z,17888
2018-05-29T06:17:39.887Z,17632
2018-05-29T06:18:05.360Z,17440
2018-05-29T06:18:30.872Z,17248
2018-05-29T06:18:56.323Z,17312
2018-05-29T06:19:21.776Z,17504
2018-05-29T06:19:47.299Z,18496
2018-05-29T06:20:12.752Z,21024
2018-05-29T06:20:38.233Z,23904
2018-05-29T06:21:03.660Z,27040
2018-05-29T06:21:29.134Z,30080
2018-05-29T06:21:54.577Z,32512
2018-05-29T06:22:20.087Z,34528
2018-05-29T06:22:45.572Z,35296
2018-05-29T06:23:11.016Z,36128
2018-05-29T06:23:36.521Z,35488
2018-05-29T06:24:02.116Z,35264
2018-05-29T06:24:27.707Z,34656
2018-05-29T06:24:53.061Z,34592
2018-05-29T06:25:18.590Z,34592
2018-05-29T06:25:44.018Z,34496
2018-05-29T06:26:09.425Z,34048
2018-05-29T06:26:35.007Z,33984
2018-05-29T06:27:00.458Z,33792
2018-05-29T06:27:25.937Z,33504
2018-05-29T06:27:51.438Z,33184
2018-05-29T06:28:16.899Z,32416
2018-05-29T06:28:42.346Z,31456
2018-05-29T06:29:07.872Z,30080
2018-05-29T06:29:33.316Z,28512
2018-05-29T06:29:58.827Z,27584
2018-05-29T06:30:24.434Z,27008
2018-05-29T06:30:49.843Z,26848
2018-05-29T06:31:15.528Z,27040
2018-05-29T06:31:41.078Z,27168
2018-05-29T06:32:06.580Z,27424
2018-05-29T06:32:32.069Z,27136
2018-05-29T06:32:57.543Z,26400
2018-05-29T06:33:23.026Z,25856
2018-05-29T06:33:48.495Z,25184
2018-05-29T06:34:13.984Z,24672
2018-05-29T06:34:39.577Z,24320
2018-05-29T06:35:05.065Z,24032
2018-05-29T06:35:30.560Z,23776
2018-05-29T06:35:56.078Z,23296
2018-05-29T06:36:21.526Z,23104
2018-05-29T06:36:46.969Z,22912
2018-05-29T06:37:12.427Z,22720
2018-05-29T06:37:37.917Z,22624
2018-05-29T06:38:03.408Z,22528
2018-05-29T06:38:29.076Z,22464
2018-05-29T06:38:54.563Z,22176
2018-05-29T06:39:20.019Z,22016
2018-05-29T06:39:45.497Z,22112
2018-05-29T06:40:11.084Z,22048
2018-05-29T06:40:36.564Z,22016
2018-05-29T06:41:02.067Z,21856
2018-05-29T06:41:27.504Z,21696
2018-05-29T06:41:52.969Z,21408
2018-05-29T06:42:18.450Z,21152
2018-05-29T06:42:43.927Z,20864
2018-05-29T06:43:09.407Z,20576
2018-05-29T06:43:34.905Z,20384
2018-05-29T06:44:00.323Z,20448
2018-05-29T06:44:25.806Z,20416
2018-05-29T06:44:51.328Z,20352
2018-05-29T06:45:16.834Z,20256
2018-05-29T06:45:42.251Z,20256
2018-05-29T06:46:07.740Z,20128
2018-05-29T06:46:33.257Z,20096
2018-05-29T06:46:58.788Z,20032
2018-05-29T06:47:24.177Z,20032
2018-05-29T06:47:49.720Z,19936
2018-05-29T06:48:15.152Z,19712
2018-05-29T06:48:40.620Z,19584
2018-05-29T06:49:06.122Z,19392
2018-05-29T06:49:31.620Z,19136
2018-05-29T06:49:57.095Z,18688
2018-05-29T06:50:22.557Z,17920
2018-05-29T06:50:48.053Z,16960
2018-05-29T06:51:13.729Z,15744
2018-05-29T06:51:39.233Z,14632
2018-05-29T06:52:04.708Z,13740
2018-05-29T06:52:30.216Z,12940
2018-05-29T06:52:55.680Z,12392
2018-05-29T06:53:21.638Z,12056
2018-05-29T06:53:47.073Z,11788
2018-05-29T06:54:12.799Z,11560
2018-05-29T06:54:38.313Z,11328
2018-05-29T06:55:03.837Z,11068
2018-05-29T06:55:29.375Z,10792
2018-05-29T06:55:54.802Z,10716
2018-05-29T06:56:20.383Z,10532
2018-05-29T06:56:45.833Z,10340
2018-05-29T06:57:11.297Z,10216
2018-05-29T06:57:36.773Z,10088
2018-05-29T06:58:02.270Z,9960
2018-05-29T06:58:27.789Z,9836
2018-05-29T06:58:53.270Z,9740
2018-05-29T06:59:18.683Z,9616
2018-05-29T06:59:44.226Z,9528
2018-05-29T07:00:09.688Z,9452
2018-05-29T07:00:35.108Z,9352
2018-05-29T07:01:00.597Z,9256
2018-05-29T07:01:26.051Z,9172
2018-05-29T07:01:51.499Z,9096
2018-05-29T07:02:16.998Z,9008
2018-05-29T07:02:42.578Z,8928
2018-05-29T07:03:08.040Z,8848
2018-05-29T07:03:33.587Z,8788
2018-05-29T07:03:59.013Z,8736
2018-05-29T07:04:24.524Z,8688
2018-05-29T07:04:49.987Z,8640
2018-05-29T07:05:15.430Z,8620
2018-05-29T07:05:40.933Z,8596
2018-05-29T07:06:06.414Z,8580
2018-05-29T07:06:31.902Z,8524
2018-05-29T07:06:57.372Z,8476
2018-05-29T07:07:22.840Z,8420
2018-05-29T07:07:48.262Z,8348
2018-05-29T07:08:13.722Z,8288
2018-05-29T07:08:39.224Z,8252
2018-05-29T07:09:04.706Z,8272
2018-05-29T07:09:30.173Z,8284
2018-05-29T07:09:55.722Z,8324
2018-05-29T07:10:21.199Z,8360
2018-05-29T07:10:46.680Z,8408
2018-05-29T07:11:12.233Z,8428
2018-05-29T07:11:37.806Z,8432
2018-05-29T07:12:03.254Z,8452
2018-05-29T07:12:28.883Z,8468
2018-05-29T07:12:54.698Z,8496
2018-05-29T07:13:20.093Z,8528
2018-05-29T07:13:45.511Z,8556
2018-05-29T07:14:11.152Z,8592
2018-05-29T07:14:36.657Z,8616
2018-05-29T07:15:02.042Z,8640
2018-05-29T07:15:27.530Z,8660
2018-05-29T07:15:53.041Z,8696
2018-05-29T07:16:18.632Z,8720
2018-05-29T07:16:44.019Z,8756
2018-05-29T07:17:09.581Z,8780
2018-05-29T07:17:35.090Z,8812
2018-05-29T07:18:00.657Z,8828
2018-05-29T07:18:26.089Z,8860
2018-05-29T07:18:51.550Z,8888
2018-05-29T07:19:17.095Z,8908
2018-05-29T07:19:42.559Z,8948
2018-05-29T07:20:08.097Z,8988
2018-05-29T07:20:33.562Z,9032
2018-05-29T07:20:58.998Z,9088
2018-05-29T07:21:24.530Z,9144
2018-05-29T07:21:50.200Z,9188
2018-05-29T07:22:15.475Z,9264
2018-05-29T07:22:40.928Z,9340
2018-05-29T07:23:06.413Z,9432
2018-05-29T07:23:31.882Z,9548
2018-05-29T07:23:57.342Z,9720
2018-05-29T07:24:22.827Z,10032
2018-05-29T07:24:48.290Z,10584
2018-05-29T07:25:13.735Z,11360
2018-05-29T07:25:39.155Z,12384
2018-05-29T07:26:04.645Z,13740
2018-05-29T07:26:30.125Z,15020
2018-05-29T07:26:55.573Z,16864
2018-05-29T07:27:21.101Z,18208
2018-05-29T07:27:46.484Z,19008
2018-05-29T07:28:11.934Z,19424
2018-05-29T07:28:37.418Z,19424
2018-05-29T07:29:02.910Z,19328
2018-05-29T07:29:28.376Z,19424
2018-05-29T07:29:53.878Z,19712
2018-05-29T07:30:19.283Z,20160
2018-05-29T07:30:44.810Z,21280
2018-05-29T07:31:10.301Z,21696
2018-05-29T07:31:35.809Z,22304
2018-05-29T07:32:01.299Z,22848
2018-05-29T07:32:26.832Z,23232
2018-05-29T07:32:52.365Z,23616
2018-05-29T07:33:17.819Z,24096
2018-05-29T07:33:43.340Z,24576
2018-05-29T07:34:08.865Z,25376
2018-05-29T07:34:34.377Z,26464
2018-05-29T07:34:59.851Z,27104
2018-05-29T07:35:25.302Z,27552
2018-05-29T07:35:50.772Z,27680
2018-05-29T07:36:16.270Z,28128
2018-05-29T07:36:41.712Z,28640
2018-05-29T07:37:07.181Z,29440
2018-05-29T07:37:32.722Z,29920
2018-05-29T07:37:58.161Z,30336
2018-05-29T07:38:23.717Z,30464
2018-05-29T07:38:49.118Z,29408
2018-05-29T07:39:14.713Z,28128
2018-05-29T07:39:40.286Z,26624
2018-05-29T07:40:05.727Z,25440
2018-05-29T07:40:31.181Z,24768
2018-05-29T07:40:56.663Z,24512
2018-05-29T07:41:22.156Z,24512
2018-05-29T07:41:47.671Z,24736
2018-05-29T07:42:13.133Z,25056
2018-05-29T07:42:38.573Z,26176
2018-05-29T07:43:04.057Z,26976
2018-05-29T07:43:29.544Z,27488
2018-05-29T07:43:55.025Z,27744
2018-05-29T07:44:20.465Z,27968
2018-05-29T07:44:46.007Z,28288
2018-05-29T07:45:11.493Z,28096
2018-05-29T07:45:36.888Z,27584
2018-05-29T07:46:02.405Z,26976
2018-05-29T07:46:27.878Z,25920
2018-05-29T07:46:53.345Z,25184
2018-05-29T07:47:18.859Z,23552
2018-05-29T07:47:44.299Z,22656
2018-05-29T07:48:09.817Z,21344
2018-05-29T07:48:35.291Z,20256
2018-05-29T07:49:00.763Z,19392
2018-05-29T07:49:26.288Z,19008
2018-05-29T07:49:51.710Z,18592
2018-05-29T07:50:17.207Z,18368
2018-05-29T07:50:42.661Z,18208
2018-05-29T07:51:08.168Z,18016
2018-05-29T07:51:33.637Z,17856
2018-05-29T07:51:59.119Z,17728
2018-05-29T07:52:24.609Z,17632
2018-05-29T07:52:50.052Z,17504
2018-05-29T07:53:15.491Z,17408
2018-05-29T07:53:41.001Z,17376
2018-05-29T07:54:06.465Z,17440
2018-05-29T07:54:32.003Z,17440
2018-05-29T07:54:57.445Z,17472
2018-05-29T07:55:22.893Z,17472
2018-05-29T07:55:48.434Z,17472
2018-05-29T07:56:13.865Z,17472
2018-05-29T07:56:39.536Z,17408
2018-05-29T07:57:05.109Z,17408
2018-05-29T07:57:30.712Z,17504
2018-05-29T07:57:56.462Z,17568
2018-05-29T07:58:22.217Z,17600
2018-05-29T07:58:47.695Z,17536
2018-05-29T07:59:13.149Z,17440
2018-05-29T07:59:38.678Z,17248
2018-05-29T08:00:04.112Z,17088
2018-05-29T08:00:29.546Z,17056
2018-05-29T08:00:55.053Z,17056
2018-05-29T08:01:20.616Z,17056
2018-05-29T08:01:46.144Z,17120
2018-05-29T08:02:11.594Z,16544
2018-05-29T08:02:37.081Z,17184
2018-05-29T08:03:02.598Z,17248
2018-05-29T08:03:28.084Z,17344
2018-05-29T08:03:53.555Z,17408
2018-05-29T08:04:19.063Z,17504
2018-05-29T08:04:44.554Z,17568
2018-05-29T08:05:10.066Z,17664
2018-05-29T08:05:35.472Z,17664
2018-05-29T08:06:02.338Z,17728
2018-05-29T08:06:27.827Z,17952
2018-05-29T08:06:53.339Z,18752
2018-05-29T08:07:18.783Z,20384
2018-05-29T08:07:44.536Z,22400
2018-05-29T08:08:09.978Z,24288
2018-05-29T08:08:35.401Z,25504
2018-05-29T08:09:00.883Z,26272
2018-05-29T08:09:26.426Z,26400
2018-05-29T08:09:51.867Z,26272
2018-05-29T08:10:17.288Z,25472
2018-05-29T08:10:42.818Z,23840
2018-05-29T08:11:08.271Z,21888
2018-05-29T08:11:33.774Z,19968
2018-05-29T08:11:59.322Z,17792
2018-05-29T08:12:24.833Z,15840
2018-05-29T08:12:50.267Z,14780
2018-05-29T08:13:15.761Z,14204
2018-05-29T08:13:41.184Z,13896
2018-05-29T08:14:06.739Z,13660
2018-05-29T08:14:32.173Z,13484
2018-05-29T08:14:57.638Z,13328
2018-05-29T08:15:23.135Z,13128
2018-05-29T08:15:48.581Z,12952
2018-05-29T08:16:14.100Z,12772
2018-05-29T08:16:39.558Z,12560
2018-05-29T08:17:05.043Z,12384
2018-05-29T08:17:30.522Z,12184
2018-05-29T08:17:55.985Z,12008
2018-05-29T08:18:21.451Z,11828
2018-05-29T08:18:47.036Z,11648
2018-05-29T08:19:12.460Z,11488
2018-05-29T08:19:37.930Z,11352
2018-05-29T08:20:03.366Z,11228
2018-05-29T08:20:28.883Z,11108
2018-05-29T08:20:54.335Z,10960
2018-05-29T08:21:19.823Z,10812
2018-05-29T08:21:45.314Z,10668
2018-05-29T08:22:10.753Z,10480
2018-05-29T08:22:36.263Z,10348
2018-05-29T08:23:01.696Z,10172
2018-05-29T08:23:27.222Z,10056
2018-05-29T08:23:52.701Z,9916
2018-05-29T08:24:18.141Z,9820
2018-05-29T08:24:43.748Z,9700
2018-05-29T08:25:09.146Z,9560
2018-05-29T08:25:34.600Z,9428
2018-05-29T08:26:00.078Z,9304
2018-05-29T08:26:25.626Z,9180
2018-05-29T08:26:51.185Z,9044
2018-05-29T08:27:16.678Z,8912
2018-05-29T08:27:42.185Z,8796
2018-05-29T08:28:07.608Z,8692
2018-05-29T08:28:33.090Z,8612
2018-05-29T08:28:58.552Z,8556
2018-05-29T08:29:24.041Z,8472
2018-05-29T08:29:49.472Z,8420
2018-05-29T08:30:15.018Z,8340
2018-05-29T08:30:40.456Z,8280
2018-05-29T08:31:05.997Z,8224
2018-05-29T08:31:31.427Z,8188
2018-05-29T08:31:56.902Z,8128
2018-05-29T08:32:22.404Z,8088
2018-05-29T08:32:48.028Z,8060
2018-05-29T08:33:13.504Z,8060
2018-05-29T08:33:38.964Z,8040
2018-05-29T08:34:04.509Z,8004
2018-05-29T08:34:29.949Z,7960
2018-05-29T08:34:55.425Z,7916
2018-05-29T08:35:20.928Z,7852
2018-05-29T08:35:46.448Z,7800
2018-05-29T08:36:11.898Z,7740
2018-05-29T08:36:37.389Z,7656
2018-05-29T08:37:03.134Z,7568
2018-05-29T08:37:28.603Z,7476
2018-05-29T08:37:54.088Z,7396
2018-05-29T08:38:19.557Z,7332
2018-05-29T08:38:45.073Z,7264
2018-05-29T08:39:10.567Z,7200
2018-05-29T08:39:36.049Z,7148
2018-05-29T08:40:01.537Z,7096
2018-05-29T08:40:27.127Z,7072
2018-05-29T08:40:52.631Z,7016
2018-05-29T08:41:18.078Z,6980
2018-05-29T08:41:43.627Z,6952
2018-05-29T08:42:09.124Z,6904
2018-05-29T08:42:34.625Z,6844
2018-05-29T08:43:00.104Z,6776
2018-05-29T08:43:25.580Z,6720
2018-05-29T08:43:51.026Z,6692
2018-05-29T08:44:16.562Z,6652
2018-05-29T08:44:42.016Z,6616
2018-05-29T08:45:07.534Z,6580
2018-05-29T08:45:32.989Z,6540
2018-05-29T08:45:58.434Z,6496
2018-05-29T08:46:23.990Z,6444
2018-05-29T08:46:49.417Z,6408
2018-05-29T08:47:14.984Z,6392
2018-05-29T08:47:40.393Z,6392
2018-05-29T08:48:05.856Z,6384
2018-05-29T08:48:31.430Z,6368
2018-05-29T08:48:56.908Z,6356
2018-05-29T08:49:22.388Z,6352
2018-05-29T08:49:47.881Z,6348
2018-05-29T08:50:13.351Z,6332
2018-05-29T08:50:38.774Z,6300
2018-05-29T08:51:04.265Z,6280
2018-05-29T08:51:29.734Z,6260
2018-05-29T08:51:55.165Z,6264
2018-05-29T08:52:20.671Z,6276
2018-05-29T08:52:46.122Z,6272
2018-05-29T08:53:11.613Z,6280
2018-05-29T08:53:37.108Z,6280
2018-05-29T08:54:02.549Z,6288
2018-05-29T08:54:27.997Z,6284
2018-05-29T08:54:53.501Z,6284
2018-05-29T08:55:18.971Z,6292
2018-05-29T08:55:44.453Z,6296
2018-05-29T08:56:09.950Z,6288
2018-05-29T08:56:35.341Z,6256
2018-05-29T08:57:00.860Z,6236
2018-05-29T08:57:26.371Z,6212
2018-05-29T08:57:51.731Z,6208
2018-05-29T08:58:17.288Z,6212
2018-05-29T08:58:42.759Z,6200
2018-05-29T08:59:08.295Z,6212
2018-05-29T08:59:33.725Z,6224
2018-05-29T08:59:59.149Z,6224
2018-05-29T09:00:24.645Z,6228
2018-05-29T09:00:50.076Z,6220
2018-05-29T09:01:15.579Z,6220
2018-05-29T09:01:41.145Z,6212
2018-05-29T09:02:06.590Z,6180
2018-05-29T09:02:32.076Z,6160
2018-05-29T09:02:57.589Z,6160
2018-05-29T09:03:23.089Z,6144
2018-05-29T09:03:48.585Z,6140
2018-05-29T09:04:14.079Z,6104
2018-05-29T09:04:39.611Z,6084
2018-05-29T09:05:05.081Z,6068
2018-05-29T09:05:30.560Z,6036
2018-05-29T09:05:56.021Z,6020
2018-05-29T09:06:21.463Z,6008
2018-05-29T09:06:47.004Z,6024
2018-05-29T09:07:12.467Z,6012
2018-05-29T09:07:37.929Z,5968
2018-05-29T09:08:03.451Z,5948
2018-05-29T09:08:28.924Z,5952
2018-05-29T09:08:54.390Z,5940
2018-05-29T09:09:19.887Z,5924
2018-05-29T09:09:45.407Z,5912
2018-05-29T09:10:10.900Z,5888
2018-05-29T09:10:36.398Z,5864
2018-05-29T09:11:01.834Z,5856
2018-05-29T09:11:27.328Z,5872
2018-05-29T09:11:52.867Z,5872
2018-05-29T09:12:18.322Z,5876
2018-05-29T09:12:43.802Z,5896
2018-05-29T09:13:09.237Z,5896
2018-05-29T09:13:34.715Z,5904
2018-05-29T09:14:00.202Z,5900
2018-05-29T09:14:25.718Z,5896
2018-05-29T09:14:51.357Z,5880
2018-05-29T09:15:16.827Z,5848
2018-05-29T09:15:42.306Z,5816
2018-05-29T09:16:07.785Z,5796
2018-05-29T09:16:33.249Z,5800
2018-05-29T09:16:58.712Z,5808
2018-05-29T09:17:24.214Z,5804
2018-05-29T09:17:49.641Z,5800
2018-05-29T09:18:15.195Z,5788
2018-05-29T09:18:40.633Z,5780
2018-05-29T09:19:06.091Z,5776
2018-05-29T09:19:31.639Z,5776
2018-05-29T09:19:57.090Z,5772
2018-05-29T09:20:22.536Z,5756
2018-05-29T09:20:48.042Z,5752
2018-05-29T09:21:13.488Z,5748
2018-05-29T09:21:38.978Z,5760
2018-05-29T09:22:04.475Z,5780
2018-05-29T09:22:29.937Z,5792
2018-05-29T09:22:55.413Z,5796
2018-05-29T09:23:20.859Z,5808
2018-05-29T09:23:46.355Z,5788
2018-05-29T09:24:11.855Z,5772
2018-05-29T09:24:37.337Z,5744
2018-05-29T09:25:02.819Z,5716
2018-05-29T09:25:28.291Z,5712
2018-05-29T09:25:53.795Z,5704
2018-05-29T09:26:19.253Z,5704
2018-05-29T09:26:44.734Z,5700
2018-05-29T09:27:10.194Z,5708
2018-05-29T09:27:35.666Z,5692
2018-05-29T09:28:01.188Z,5676
2018-05-29T09:28:26.678Z,5664
2018-05-29T09:28:52.230Z,5660
2018-05-29T09:29:17.745Z,5668
2018-05-29T09:29:43.270Z,5676
2018-05-29T09:30:08.663Z,5668
2018-05-29T09:30:34.163Z,5660
2018-05-29T09:30:59.588Z,5640
2018-05-29T09:31:25.239Z,5616
2018-05-29T09:31:50.657Z,5608
2018-05-29T09:32:16.185Z,5592
2018-05-29T09:32:41.608Z,5580
2018-05-29T09:33:07.112Z,5568
2018-05-29T09:33:32.658Z,5556
2018-05-29T09:33:58.220Z,5540
2018-05-29T09:34:23.706Z,5540
2018-05-29T09:34:49.343Z,5532
2018-05-29T09:35:14.860Z,5536
2018-05-29T09:35:40.312Z,5532
2018-05-29T09:36:05.892Z,5528
2018-05-29T09:36:31.354Z,5536
2018-05-29T09:36:56.847Z,5544
2018-05-29T09:37:22.356Z,5544
2018-05-29T09:37:47.805Z,5524
2018-05-29T09:38:13.346Z,5536
2018-05-29T09:38:38.814Z,5544
2018-05-29T09:39:04.429Z,5544
2018-05-29T09:39:29.854Z,5572
2018-05-29T09:39:55.339Z,5596
2018-05-29T09:40:20.889Z,5608
2018-05-29T09:40:46.323Z,5624
2018-05-29T09:41:11.934Z,5636
2018-05-29T09:41:37.557Z,5648
2018-05-29T09:42:03.007Z,5636
2018-05-29T09:42:28.462Z,5636
2018-05-29T09:42:53.969Z,5648
2018-05-29T09:43:19.464Z,5628
2018-05-29T09:43:44.936Z,5612
2018-05-29T09:44:10.455Z,5628
2018-05-29T09:44:35.912Z,5648
2018-05-29T09:45:01.451Z,5644
2018-05-29T09:45:26.903Z,5644
2018-05-29T09:45:52.388Z,5648
2018-05-29T09:46:17.823Z,5644
2018-05-29T09:46:43.349Z,5636
2018-05-29T09:47:08.792Z,5652
2018-05-29T09:47:34.275Z,5652
2018-05-29T09:47:59.779Z,5660
2018-05-29T09:48:25.228Z,5668
2018-05-29T09:48:50.715Z,5648
2018-05-29T09:49:16.221Z,5652
2018-05-29T09:49:41.706Z,5656
2018-05-29T09:50:07.135Z,5648
2018-05-29T09:50:32.690Z,5644
2018-05-29T09:50:58.147Z,5640
2018-05-29T09:51:23.600Z,5612